Terminal Aerodrome Forecast
Issued by NWS Detroit/Pontiac, MI

Home | Current Version | Previous Version | Text Only | Print | Product List | Glossary On
Versions: 1 2 3 4 5 6 7 8 9 10 11 12 13 14 15 16 17
000
FTUS43 KDTX 052340
TAFFNT
TAF
KFNT 052340Z 0600/0624 30007KT P6SM SCT050
     FM060100 25005KT P6SM SCT035
     FM061400 22010KT P6SM BKN250
     FM061900 22013G20KT P6SM SCT040 OVC120=

USA.gov is the U.S. government's official web portal to all federal, state and local government web resources and services.